Detalii statie AGRONOVA [00001CEC]

Toti senzorii

Date Temperatura solului [C]Precipitatii [mm]Voltaj baterie [mV]Leaf Wetness [Min]HC Air temperature [C]HC Relative humidity [%]Punctul de roua [C]
medieminmaxsumaultimatimpmedieminmaxmediemediemin
2017-08-14 20:00:00 24.7 24.5 24.9 0.4 6806 25.31 22.8 25.75 0 0 0
2017-08-14 21:00:00 24.3 24.2 24.5 0.8 6718 22.16 21.62 22.79 0 0 0
2017-08-14 22:00:00 24 23.9 24.3 0 6678 21.23 20.03 22.13 0 0 0
2017-08-14 23:00:00 23.8 23.5 24 0 6660 19.59 19.41 19.98 0 0 0
2017-08-15 00:00:00 23.3 23.1 23.5 0 6650 19.49 19.38 19.68 0 0 0
2017-08-15 01:00:00 23.1 23 23.6 0 6640 18.6 17.79 19.43 0 0 0
2017-08-15 02:00:00 22.8 22.7 23 0 6630 17.65 17.36 17.92 0 0 0
2017-08-15 03:00:00 22.5 22.4 22.8 0 6620 17.01 16.8 17.2 0 0 0
2017-08-15 04:00:00 22.3 22.1 22.4 0 6620 16.29 15.96 16.58 0 0 0
2017-08-15 05:00:00 22 22 22.3 0 6610 15.85 15.53 16.16 0 0 0
2017-08-15 06:00:00 21.8 21.8 22 0 6610 16.44 15.51 17.02 0 0 0
2017-08-15 07:00:00 21.6 21.5 21.8 0 6708 17.65 16.96 18.41 0 0 0
2017-08-15 08:00:00 21.6 21.5 21.7 0 6826 19.69 18.45 20.74 0 0 0
2017-08-15 09:00:00 21.7 21.6 21.9 0 6952 21.86 20.99 23.28 0 0 0
2017-08-15 10:00:00 22.1 21.9 22.3 0 7236 23.75 22.64 24.82 0 0 0
2017-08-15 11:00:00 22.7 22.4 23.2 0 7246 26.47 25.52 27.46 14.81 3.9 0
2017-08-15 12:00:00 23.8 23.3 24.5 0 7246 28.51 27.67 29.16 0 0 0
2017-08-15 13:00:00 25 24.6 25.6 0 7246 29.93 29.13 31.03 0 0 0
2017-08-15 14:00:00 25.9 25.5 26.3 0 7246 31.73 30.74 32.99 0 0 0
2017-08-15 15:00:00 26.5 26.3 26.7 0 7246 31.44 30.02 32.68 0 0 0
2017-08-15 16:00:00 26.6 26.5 26.7 0 7246 31.22 30.51 33.21 0 0 0
2017-08-15 17:00:00 26.7 26.5 27 0 7226 31.24 30.94 31.52 0 0 0
2017-08-15 18:00:00 26.5 26.4 26.7 0 7236 30.23 29.8 31.03 0 0 0
2017-08-15 19:00:00 26.3 26.2 26.5 0 6942 28.52 27.52 29.54 0 0 0
2017-08-15 20:00:00 26 25.9 26.1 0 6786 25.98 25.03 26.97 0 0 0
2017-08-15 21:00:00 25.6 25.4 25.8 0 6698 25.04 24.45 26.18 0 0 0
2017-08-15 22:00:00 25.1 24.9 25.3 0 6668 25.45 24.9 25.89 0 0 0
2017-08-15 23:00:00 24.8 24.7 25.1 0 6660 24.01 23.29 24.84 0 0 0
2017-08-16 00:00:00 24.6 24.5 24.9 0 6650 22.37 21.29 23.61 0 0 0
2017-08-16 01:00:00 24.3 24.1 24.5 0 6640 20.24 18.91 21.36 0 0 0
2017-08-16 02:00:00 24 23.8 24.1 0 6630 19.86 19.12 20.25 0 0 0
2017-08-16 03:00:00 23.5 23.5 23.9 0 6630 19.21 17.8 20.24 0 0 0
2017-08-16 04:00:00 23.2 23.1 23.4 0 6620 17.91 17.45 18.69 0 0 0
2017-08-16 05:00:00 22.9 22.7 23.1 0 6600 17.76 17.14 18.96 0 0 0
2017-08-16 06:00:00 22.7 22.5 22.9 0 6610 17.88 17.58 18.43 0 0 0
2017-08-16 07:00:00 22.5 22.5 22.7 0 6698 18.77 17.78 20.72 0 0 0
2017-08-16 08:00:00 22.5 22.4 22.6 0 6834 22.11 20.95 22.81 0 0 0
2017-08-16 09:00:00 22.6 22.4 22.8 0 6952 24.42 23.11 25.44 0 0 0
2017-08-16 10:00:00 23 22.7 23.3 0 7216 26.33 25.34 27.13 0 0 0
2017-08-16 11:00:00 23.8 23.4 24.4 0 7246 28.22 27.47 29.29 0 0 0
2017-08-16 12:00:00 24.9 24.5 25.5 0 7246 30 28.95 31.26 0 0 0
2017-08-16 13:00:00 25.9 25.6 26.3 0 7236 31.14 29.99 32.13 0 0 0
2017-08-16 14:00:00 26.5 26.4 26.7 0 7246 31.25 29.69 33.38 0 0 0
2017-08-16 15:00:00 26.6 26.6 26.9 0 7010 30.6 28.1 32.89 0 0 0
2017-08-16 16:00:00 26.6 26.5 26.9 0 7226 30.2 28.02 32.1 0 0 0
2017-08-16 17:00:00 26.6 26.5 26.7 0 7236 29.89 28.35 30.85 0 0 0
2017-08-16 18:00:00 26.6 26.4 26.8 0 6962 29.79 27.23 31.05 0 0 0
2017-08-16 19:00:00 26.3 26.1 26.5 0 6816 25.52 22.88 28.05 0 0 0